Time;durP1;ratioP1;P1;durP2;ratioP2;P2;SDS_P1;SDS_P2;PMS_P1;PMS_P2;Temp;Humidity;BMP_temperature;BMP_pressure;BME280_temperature;BME280_humidity;BME280_pressure;Samples;Min_cycle;Max_cycle;Signal;HPM_P1;HPM_P2
2022/09/15 00:02:02;;;;;;;;;;;20.50;99.90;;;;;;5113752;28;19954;-65
2022/09/15 00:04:27;;;;;;;;;;;20.40;99.90;;;;;;5113892;28;19904;-65
2022/09/15 00:06:53;;;;;;;;;;;20.40;99.90;;;;;;5113736;28;20283;-65
2022/09/15 00:09:19;;;;;;;;;;;20.40;99.90;;;;;;5113891;28;19907;-65
2022/09/15 00:11:44;;;;;;;;;;;20.30;99.90;;;;;;5113734;28;19961;-65
2022/09/15 00:14:10;;;;;;;;;;;20.30;99.90;;;;;;5088018;28;19920;-66
2022/09/15 00:16:36;;;;;;;;;;;20.30;99.90;;;;;;5071914;28;19904;-67
2022/09/15 00:19:02;;;;;;;;;;;20.30;99.90;;;;;;5072066;28;19939;-65
2022/09/15 00:21:29;;;;;;;;;;;20.20;99.90;;;;;;5073277;28;20041;-64
2022/09/15 00:23:55;;;;;;;;;;;20.20;99.90;;;;;;5075742;28;19991;-63
2022/09/15 00:26:23;;;;;;;;;;;20.20;99.90;;;;;;5074603;28;20582;-64
2022/09/15 00:28:49;;;;;;;;;;;20.20;99.90;;;;;;5076033;28;20352;-64
2022/09/15 00:31:16;;;;;;;;;;;20.20;99.90;;;;;;5075782;28;19911;-64
2022/09/15 00:33:41;;;;;;;;;;;20.10;99.90;;;;;;5075461;28;20311;-64
2022/09/15 00:36:09;;;;;;;;;;;20.20;99.90;;;;;;5074398;28;19915;-64
2022/09/15 00:38:35;;;;;;;;;;;20.20;99.90;;;;;;5076061;28;20423;-64
2022/09/15 00:41:01;;;;;;;;;;;20.20;99.90;;;;;;5075566;28;19912;-64
2022/09/15 00:43:44;;;;;;;;;;;20.20;99.90;;;;;;5076633;28;19932;-63
2022/09/15 00:46:10;;;;;;;;;;;20.20;99.90;;;;;;5076683;28;20061;-64
2022/09/15 00:48:41;;;;;;;;;;;20.20;99.90;;;;;;5077079;28;19970;-64
2022/09/15 00:51:08;;;;;;;;;;;20.20;99.90;;;;;;5077255;28;19904;-64
2022/09/15 00:53:35;;;;;;;;;;;20.20;99.90;;;;;;5076653;28;19904;-63
2022/09/15 00:56:02;;;;;;;;;;;20.20;99.90;;;;;;5075497;28;19967;-64
2022/09/15 00:58:29;;;;;;;;;;;20.20;99.90;;;;;;5076798;28;19904;-63
2022/09/15 01:00:56;;;;;;;;;;;20.10;99.90;;;;;;5076835;28;19915;-63
2022/09/15 01:03:24;;;;;;;;;;;20.10;99.90;;;;;;5076705;28;19951;-63
2022/09/15 01:05:57;;;;;;;;;;;20.10;99.90;;;;;;5076566;28;19916;-63
2022/09/15 01:08:32;;;;;;;;;;;20.10;99.90;;;;;;5076629;28;19904;-64
2022/09/15 01:10:58;;;;;;;;;;;20.10;99.90;;;;;;5076646;28;19952;-63
2022/09/15 01:13:24;;;;;;;;;;;20.10;99.90;;;;;;5076496;28;19958;-63
2022/09/15 01:15:59;;;;;;;;;;;20.10;99.90;;;;;;5112104;28;20014;-64
2022/09/15 01:18:25;;;;;;;;;;;20.10;99.90;;;;;;5098791;28;19953;-64
2022/09/15 01:20:56;;;;;;;;;;;20.10;99.90;;;;;;5117131;28;19904;-63
2022/09/15 01:23:43;;;;;;;;;;;20.10;99.90;;;;;;5117009;28;19965;-63
2022/09/15 01:26:37;;;;;;;;;;;20.10;99.90;;;;;;5116240;28;19912;-64
2022/09/15 01:29:21;;;;;;;;;;;20.20;99.90;;;;;;5116916;28;19903;-64
2022/09/15 01:34:40;;;;;;;;;;;20.30;99.90;;;;;;5115641;28;19915;-64
2022/09/15 01:37:10;;;;;;;;;;;20.30;99.90;;;;;;5115823;28;19907;-64
2022/09/15 01:39:38;;;;;;;;;;;20.20;99.90;;;;;;5115478;28;20469;-64
2022/09/15 01:42:06;;;;;;;;;;;20.30;99.90;;;;;;5115314;28;19972;-63
2022/09/15 01:44:34;;;;;;;;;;;20.30;99.90;;;;;;5115248;28;19904;-65
2022/09/15 01:47:05;;;;;;;;;;;20.30;99.90;;;;;;5115197;28;20010;-64
2022/09/15 01:49:51;;;;;;;;;;;20.40;99.90;;;;;;5113796;28;19935;-62
2022/09/15 01:52:19;;;;;;;;;;;20.40;99.90;;;;;;5116536;28;19904;-65
2022/09/15 01:54:50;;;;;;;;;;;20.40;99.90;;;;;;5116377;28;19999;-64
2022/09/15 01:57:20;;;;;;;;;;;20.40;99.90;;;;;;5116682;28;19904;-63
2022/09/15 01:59:49;;;;;;;;;;;20.50;99.90;;;;;;5116386;28;20012;-64
2022/09/15 02:02:20;;;;;;;;;;;20.40;99.90;;;;;;5116242;28;20048;-64
2022/09/15 02:04:52;;;;;;;;;;;20.40;99.90;;;;;;5116221;28;19910;-62
2022/09/15 02:07:26;;;;;;;;;;;20.50;99.90;;;;;;5116257;28;19908;-64
2022/09/15 02:09:55;;;;;;;;;;;20.40;99.90;;;;;;5116193;28;19904;-63
2022/09/15 02:12:32;;;;;;;;;;;20.50;99.90;;;;;;5116093;28;19908;-64
2022/09/15 02:15:06;;;;;;;;;;;20.60;99.90;;;;;;5116015;28;19962;-63
2022/09/15 02:17:34;;;;;;;;;;;20.70;99.90;;;;;;5097708;28;19946;-65
2022/09/15 02:20:16;;;;;;;;;;;20.80;99.90;;;;;;5116259;28;19930;-64
2022/09/15 02:22:46;;;;;;;;;;;20.90;99.90;;;;;;5115925;28;19946;-64
2022/09/15 02:25:15;;;;;;;;;;;21.00;99.90;;;;;;5097387;28;19912;-64
2022/09/15 02:27:46;;;;;;;;;;;21.10;99.90;;;;;;5115775;28;19947;-64
2022/09/15 02:30:13;;;;;;;;;;;21.10;99.90;;;;;;5097507;28;19903;-63
2022/09/15 02:32:41;;;;;;;;;;;21.10;99.90;;;;;;5097372;28;19903;-64
2022/09/15 02:35:08;;;;;;;;;;;21.20;99.90;;;;;;5097040;28;19907;-62
2022/09/15 02:37:35;;;;;;;;;;;21.20;99.90;;;;;;5097259;28;19911;-64
2022/09/15 02:40:04;;;;;;;;;;;21.20;99.90;;;;;;5115880;28;19904;-64
2022/09/15 02:42:31;;;;;;;;;;;21.20;99.90;;;;;;5115546;28;20244;-64
2022/09/15 02:44:57;;;;;;;;;;;21.30;99.90;;;;;;5114280;28;19916;-64
2022/09/15 02:47:23;;;;;;;;;;;21.30;99.90;;;;;;5115403;28;19993;-64
2022/09/15 02:49:49;;;;;;;;;;;21.30;99.90;;;;;;5115424;28;19903;-64
2022/09/15 02:52:20;;;;;;;;;;;21.30;99.90;;;;;;5115603;28;19904;-63
2022/09/15 02:54:45;;;;;;;;;;;21.30;99.90;;;;;;5115558;28;19911;-63
2022/09/15 02:57:12;;;;;;;;;;;21.20;99.90;;;;;;5115464;28;19904;-64
2022/09/15 03:02:23;;;;;;;;;;;21.10;99.90;;;;;;5115179;28;19911;-64
2022/09/15 03:04:49;;;;;;;;;;;21.10;99.90;;;;;;5114665;28;20275;-63
2022/09/15 03:07:15;;;;;;;;;;;21.10;99.90;;;;;;5096647;28;19904;-63
2022/09/15 03:09:41;;;;;;;;;;;21.00;99.90;;;;;;5096343;28;19904;-63
2022/09/15 03:12:07;;;;;;;;;;;21.00;99.90;;;;;;5114910;28;19910;-63
2022/09/15 03:14:32;;;;;;;;;;;21.10;99.90;;;;;;5114519;28;19922;-63
2022/09/15 03:16:58;;;;;;;;;;;21.10;99.90;;;;;;5114816;28;20422;-64
2022/09/15 03:19:24;;;;;;;;;;;21.10;99.90;;;;;;5114801;28;19914;-63
2022/09/15 03:21:50;;;;;;;;;;;21.10;99.90;;;;;;5114803;28;19904;-63
2022/09/15 03:24:18;;;;;;;;;;;21.10;99.90;;;;;;5114684;28;19910;-63
2022/09/15 03:26:43;;;;;;;;;;;21.10;99.90;;;;;;5114579;28;19912;-64
2022/09/15 03:29:09;;;;;;;;;;;21.00;99.90;;;;;;5114586;28;19918;-64
2022/09/15 03:31:35;;;;;;;;;;;21.00;99.90;;;;;;5096293;28;19907;-63
2022/09/15 03:34:00;;;;;;;;;;;21.00;99.90;;;;;;5114548;28;20256;-63
2022/09/15 03:36:26;;;;;;;;;;;21.00;99.90;;;;;;5114495;28;19904;-63
2022/09/15 03:38:51;;;;;;;;;;;21.00;99.90;;;;;;5114438;28;19904;-63
2022/09/15 03:41:17;;;;;;;;;;;21.00;99.90;;;;;;5114479;28;20260;-63
2022/09/15 03:43:43;;;;;;;;;;;20.90;99.90;;;;;;5114361;28;20275;-63
2022/09/15 03:46:10;;;;;;;;;;;21.00;99.90;;;;;;5114224;28;19918;-63
2022/09/15 03:48:37;;;;;;;;;;;21.00;99.90;;;;;;5114321;28;19907;-63
2022/09/15 03:51:03;;;;;;;;;;;21.00;99.90;;;;;;5113990;28;20287;-63
2022/09/15 03:53:30;;;;;;;;;;;21.00;99.90;;;;;;5114220;28;20338;-63
2022/09/15 03:56:05;;;;;;;;;;;20.90;99.90;;;;;;5113586;28;19903;-63
2022/09/15 03:58:31;;;;;;;;;;;20.90;99.90;;;;;;5114194;28;20381;-63
2022/09/15 04:00:58;;;;;;;;;;;20.90;99.90;;;;;;5114204;28;19908;-63
2022/09/15 04:03:24;;;;;;;;;;;20.90;99.90;;;;;;5114438;28;19904;-63
2022/09/15 04:05:50;;;;;;;;;;;20.90;99.90;;;;;;5113931;28;19922;-63
2022/09/15 04:08:15;;;;;;;;;;;20.90;99.90;;;;;;5114058;28;19904;-63
2022/09/15 04:10:41;;;;;;;;;;;20.90;99.90;;;;;;5114048;28;20354;-63
2022/09/15 04:13:07;;;;;;;;;;;20.80;99.90;;;;;;5095710;28;19908;-63
2022/09/15 04:15:33;;;;;;;;;;;20.80;99.90;;;;;;5113783;28;19931;-63
2022/09/15 04:18:01;;;;;;;;;;;20.80;99.90;;;;;;5113117;28;20213;-63
2022/09/15 04:20:27;;;;;;;;;;;20.70;99.90;;;;;;5095762;28;19908;-63
2022/09/15 04:22:52;;;;;;;;;;;20.70;99.90;;;;;;5113955;28;20324;-63
2022/09/15 04:25:18;;;;;;;;;;;20.70;99.90;;;;;;5114069;28;19916;-63
2022/09/15 04:27:43;;;;;;;;;;;20.80;99.90;;;;;;5113881;28;19946;-63
2022/09/15 04:30:09;;;;;;;;;;;20.90;99.90;;;;;;5095560;28;19959;-64
2022/09/15 04:32:35;;;;;;;;;;;20.90;99.90;;;;;;5095255;28;19908;-64
2022/09/15 04:35:01;;;;;;;;;;;20.90;99.90;;;;;;5113761;28;19931;-63
2022/09/15 04:37:27;;;;;;;;;;;20.90;99.90;;;;;;5113789;28;20256;-64
2022/09/15 04:39:52;;;;;;;;;;;21.00;99.90;;;;;;5095440;28;20356;-64
2022/09/15 04:42:20;;;;;;;;;;;20.90;99.90;;;;;;5113781;28;20396;-64
2022/09/15 04:44:46;;;;;;;;;;;21.00;99.90;;;;;;5095329;28;19911;-66
2022/09/15 04:47:11;;;;;;;;;;;21.00;99.90;;;;;;5113692;28;19920;-65
2022/09/15 04:49:37;;;;;;;;;;;21.00;99.90;;;;;;5113356;28;20488;-66
2022/09/15 04:52:03;;;;;;;;;;;21.00;99.90;;;;;;5113691;28;19943;-66
2022/09/15 04:54:30;;;;;;;;;;;21.00;99.90;;;;;;5113621;28;20003;-65
2022/09/15 04:56:56;;;;;;;;;;;21.00;99.90;;;;;;5095371;28;19911;-65
2022/09/15 04:59:22;;;;;;;;;;;21.00;99.90;;;;;;5113517;28;20321;-66
2022/09/15 05:01:52;;;;;;;;;;;21.10;99.90;;;;;;5113586;28;19962;-66
2022/09/15 05:04:18;;;;;;;;;;;21.00;99.90;;;;;;5113524;28;19919;-66
2022/09/15 05:06:51;;;;;;;;;;;21.00;99.90;;;;;;5113414;28;19911;-66
2022/09/15 05:09:17;;;;;;;;;;;21.00;99.90;;;;;;5097456;28;19912;-66
2022/09/15 05:11:43;;;;;;;;;;;21.00;99.90;;;;;;5117069;28;19915;-66
2022/09/15 05:14:09;;;;;;;;;;;20.90;99.90;;;;;;5116862;28;20014;-66
2022/09/15 05:16:35;;;;;;;;;;;20.90;99.90;;;;;;5116740;28;20321;-66
2022/09/15 05:19:01;;;;;;;;;;;20.90;99.90;;;;;;5098703;28;19953;-66
2022/09/15 05:21:28;;;;;;;;;;;21.00;99.90;;;;;;5098747;28;19908;-66
2022/09/15 05:23:53;;;;;;;;;;;21.00;99.90;;;;;;5116963;28;19915;-66
2022/09/15 05:26:21;;;;;;;;;;;21.10;99.90;;;;;;5116749;28;19911;-66
2022/09/15 05:28:47;;;;;;;;;;;21.10;99.90;;;;;;5116754;28;19943;-66
2022/09/15 05:31:16;;;;;;;;;;;21.10;99.90;;;;;;5116742;28;20011;-63
2022/09/15 05:33:42;;;;;;;;;;;21.20;99.90;;;;;;5116606;28;19918;-64
2022/09/15 05:36:08;;;;;;;;;;;21.20;99.90;;;;;;5098283;28;19912;-64
2022/09/15 05:38:33;;;;;;;;;;;21.30;99.90;;;;;;5116611;28;20352;-64
2022/09/15 05:41:02;;;;;;;;;;;21.30;99.90;;;;;;5116287;28;19908;-65
2022/09/15 05:43:32;;;;;;;;;;;21.30;99.90;;;;;;5098212;28;19919;-64
2022/09/15 05:45:58;;;;;;;;;;;21.30;99.90;;;;;;5116397;28;20279;-64
2022/09/15 05:48:24;;;;;;;;;;;21.30;99.90;;;;;;5116521;28;19919;-63
2022/09/15 05:50:51;;;;;;;;;;;21.30;99.90;;;;;;5097965;28;19912;-65
2022/09/15 05:53:17;;;;;;;;;;;21.30;99.90;;;;;;5116272;28;19915;-64
2022/09/15 05:55:42;;;;;;;;;;;21.40;99.90;;;;;;5116606;28;19908;-63
2022/09/15 05:58:08;;;;;;;;;;;21.40;99.90;;;;;;5098027;28;20372;-63
2022/09/15 06:00:34;;;;;;;;;;;21.40;99.90;;;;;;5116184;28;19912;-63
2022/09/15 06:03:00;;;;;;;;;;;21.50;99.90;;;;;;5116261;28;19912;-63
2022/09/15 06:05:26;;;;;;;;;;;21.50;99.90;;;;;;5116051;28;19919;-65
2022/09/15 06:07:53;;;;;;;;;;;21.50;99.90;;;;;;5116135;28;19921;-64
2022/09/15 06:10:21;;;;;;;;;;;21.60;99.90;;;;;;5097655;28;20313;-63
2022/09/15 06:12:47;;;;;;;;;;;21.60;99.90;;;;;;5116092;28;19912;-64
2022/09/15 06:15:13;;;;;;;;;;;21.60;99.90;;;;;;5115590;28;19973;-64
2022/09/15 06:17:39;;;;;;;;;;;21.60;99.90;;;;;;5115704;28;19958;-64
2022/09/15 06:20:12;;;;;;;;;;;21.60;99.90;;;;;;5115320;28;20367;-63
2022/09/15 06:22:38;;;;;;;;;;;21.70;99.90;;;;;;5115908;28;19915;-63
2022/09/15 06:25:04;;;;;;;;;;;21.70;99.90;;;;;;5097410;28;19908;-63
2022/09/15 06:27:30;;;;;;;;;;;21.70;99.90;;;;;;5115373;28;19916;-63
2022/09/15 06:29:55;;;;;;;;;;;21.80;99.90;;;;;;5115703;28;20264;-63
2022/09/15 06:32:21;;;;;;;;;;;21.80;99.90;;;;;;5115752;28;20336;-64
2022/09/15 06:34:47;;;;;;;;;;;21.90;99.90;;;;;;5097246;28;20422;-63
2022/09/15 06:37:13;;;;;;;;;;;22.00;99.90;;;;;;5115554;28;19914;-63
2022/09/15 06:39:38;;;;;;;;;;;22.10;99.90;;;;;;5097120;28;19934;-63
2022/09/15 06:42:04;;;;;;;;;;;22.20;99.90;;;;;;5115553;28;19915;-63
2022/09/15 06:44:30;;;;;;;;;;;22.30;99.90;;;;;;5115400;28;19912;-63
2022/09/15 06:46:55;;;;;;;;;;;22.40;99.90;;;;;;5115303;28;19912;-63
2022/09/15 06:49:21;;;;;;;;;;;22.50;99.90;;;;;;5096673;28;19918;-65
2022/09/15 06:51:50;;;;;;;;;;;22.70;99.90;;;;;;5097285;28;19984;-64
2022/09/15 06:54:16;;;;;;;;;;;22.80;99.90;;;;;;5115491;28;19907;-63
2022/09/15 06:56:42;;;;;;;;;;;22.90;99.90;;;;;;5115148;28;20393;-63
2022/09/15 06:59:11;;;;;;;;;;;23.00;99.90;;;;;;5115025;28;19955;-63
2022/09/15 07:01:37;;;;;;;;;;;23.10;99.90;;;;;;5114345;28;19911;-64
2022/09/15 07:04:03;;;;;;;;;;;23.20;99.90;;;;;;5114943;28;19916;-64
2022/09/15 07:06:30;;;;;;;;;;;23.20;99.90;;;;;;5114864;28;19918;-64
2022/09/15 07:08:57;;;;;;;;;;;23.30;99.90;;;;;;5114789;28;19919;-64
2022/09/15 07:11:23;;;;;;;;;;;23.40;99.90;;;;;;5114817;28;19908;-62
2022/09/15 07:13:49;;;;;;;;;;;23.40;99.90;;;;;;5114644;28;20003;-63
2022/09/15 07:16:15;;;;;;;;;;;23.50;99.90;;;;;;5114818;28;19908;-63
2022/09/15 07:18:41;;;;;;;;;;;23.60;99.90;;;;;;5114397;28;19911;-64
2022/09/15 07:21:08;;;;;;;;;;;23.60;99.90;;;;;;5114570;28;19915;-62
2022/09/15 07:23:34;;;;;;;;;;;23.70;99.90;;;;;;5114630;28;20041;-62
2022/09/15 07:26:23;;;;;;;;;;;23.80;99.90;;;;;;5096220;28;20435;-63
2022/09/15 07:28:49;;;;;;;;;;;23.90;99.90;;;;;;5090573;28;19912;-64
2022/09/15 07:31:16;;;;;;;;;;;23.90;99.90;;;;;;5113855;28;19915;-63
2022/09/15 07:33:42;;;;;;;;;;;23.90;99.90;;;;;;5114519;28;19908;-62
2022/09/15 07:36:09;;;;;;;;;;;23.90;99.90;;;;;;5111420;28;20002;-65
2022/09/15 07:38:37;;;;;;;;;;;23.90;99.90;;;;;;5114026;28;19914;-63
2022/09/15 07:41:03;;;;;;;;;;;23.90;99.90;;;;;;5095790;28;19918;-63
2022/09/15 07:43:29;;;;;;;;;;;24.00;99.90;;;;;;5114141;28;19919;-62
2022/09/15 07:45:58;;;;;;;;;;;24.00;99.90;;;;;;5095145;28;19915;-63
2022/09/15 07:48:24;;;;;;;;;;;23.90;99.90;;;;;;5113954;28;19918;-63
2022/09/15 07:50:49;;;;;;;;;;;23.90;99.90;;;;;;5113940;28;20010;-63
2022/09/15 07:53:15;;;;;;;;;;;23.90;99.90;;;;;;5095568;28;19929;-63
2022/09/15 07:55:41;;;;;;;;;;;23.90;99.90;;;;;;5113791;28;19919;-63
2022/09/15 07:58:06;;;;;;;;;;;23.90;99.90;;;;;;5113584;28;19930;-64
2022/09/15 08:00:32;;;;;;;;;;;24.00;99.90;;;;;;5113296;28;19908;-63
2022/09/15 08:02:58;;;;;;;;;;;24.00;99.90;;;;;;5113967;28;19907;-63
2022/09/15 08:05:27;;;;;;;;;;;24.00;99.90;;;;;;5113458;28;20328;-63
2022/09/15 08:07:56;;;;;;;;;;;24.00;99.90;;;;;;5113817;28;19961;-63
2022/09/15 08:10:24;;;;;;;;;;;24.00;99.90;;;;;;5095633;28;20010;-65
2022/09/15 08:12:53;;;;;;;;;;;24.00;99.90;;;;;;5114278;28;19918;-64
2022/09/15 08:15:19;;;;;;;;;;;24.00;99.90;;;;;;5114119;28;19926;-63
2022/09/15 08:17:45;;;;;;;;;;;24.00;99.90;;;;;;5113801;28;20379;-63
2022/09/15 08:20:12;;;;;;;;;;;24.00;99.90;;;;;;5113239;28;19974;-63
2022/09/15 08:22:38;;;;;;;;;;;24.00;99.90;;;;;;5113653;28;19911;-63
2022/09/15 08:25:04;;;;;;;;;;;24.00;99.90;;;;;;5113434;28;20006;-63
2022/09/15 08:27:30;;;;;;;;;;;24.00;99.90;;;;;;5113474;28;20386;-63
2022/09/15 08:29:56;;;;;;;;;;;23.90;99.90;;;;;;5113076;28;20359;-65
2022/09/15 08:32:21;;;;;;;;;;;23.90;99.90;;;;;;5095141;28;19908;-65
2022/09/15 08:34:47;;;;;;;;;;;23.80;99.90;;;;;;5111440;28;19908;-64
2022/09/15 08:37:12;;;;;;;;;;;23.70;99.90;;;;;;5094312;28;20278;-65
2022/09/15 08:39:38;;;;;;;;;;;23.60;99.90;;;;;;5111014;28;19918;-64
2022/09/15 08:42:04;;;;;;;;;;;23.50;99.90;;;;;;5111961;28;19918;-64
2022/09/15 08:44:48;;;;;;;;;;;23.50;99.90;;;;;;5098319;28;20276;-66
2022/09/15 08:47:17;;;;;;;;;;;23.50;99.90;;;;;;5098583;28;20011;-65
2022/09/15 08:49:48;;;;;;;;;;;23.50;99.90;;;;;;5117136;28;19908;-65
2022/09/15 08:52:29;;;;;;;;;;;23.60;99.90;;;;;;5117523;28;19908;-66
2022/09/15 08:54:56;;;;;;;;;;;23.70;99.90;;;;;;5117155;28;19934;-64
2022/09/15 08:57:24;;;;;;;;;;;23.80;99.90;;;;;;5116928;28;19912;-65
2022/09/15 08:59:50;;;;;;;;;;;23.80;99.90;;;;;;5098499;28;20013;-65
2022/09/15 09:02:31;;;;;;;;;;;23.90;99.90;;;;;;5098375;28;19931;-67
2022/09/15 09:05:14;;;;;;;;;;;23.90;99.90;;;;;;5116653;28;19915;-65
2022/09/15 09:08:05;;;;;;;;;;;23.80;99.90;;;;;;5116887;28;20348;-66
2022/09/15 09:10:40;;;;;;;;;;;23.80;99.90;;;;;;5111638;28;19918;-64
2022/09/15 09:13:24;;;;;;;;;;;23.80;99.90;;;;;;5098629;28;19918;-65
2022/09/15 09:16:03;;;;;;;;;;;23.90;99.90;;;;;;5116592;28;19931;-63
2022/09/15 09:18:31;;;;;;;;;;;24.00;99.90;;;;;;5117032;28;20306;-63
2022/09/15 09:21:03;;;;;;;;;;;24.20;99.90;;;;;;5098440;28;20012;-63
2022/09/15 09:23:30;;;;;;;;;;;24.20;99.90;;;;;;5098455;28;20256;-63
2022/09/15 09:25:56;;;;;;;;;;;24.30;99.90;;;;;;5116690;28;19911;-65
2022/09/15 09:28:29;;;;;;;;;;;24.50;99.90;;;;;;5116753;28;19938;-64
2022/09/15 09:31:01;;;;;;;;;;;24.70;99.90;;;;;;5116669;28;19908;-63
2022/09/15 09:33:29;;;;;;;;;;;25.00;99.90;;;;;;5116659;28;19950;-63
2022/09/15 09:35:56;;;;;;;;;;;25.10;99.90;;;;;;5116566;28;20348;-66
2022/09/15 09:38:29;;;;;;;;;;;25.30;99.90;;;;;;5116230;28;20346;-64
2022/09/15 09:40:54;;;;;;;;;;;25.50;99.90;;;;;;5098414;28;19999;-65
2022/09/15 09:43:20;;;;;;;;;;;25.70;99.90;;;;;;5115954;28;20392;-64
2022/09/15 09:45:46;;;;;;;;;;;25.90;99.90;;;;;;5116334;28;19912;-63
2022/09/15 09:48:17;;;;;;;;;;;26.00;99.90;;;;;;5116329;28;19964;-64
2022/09/15 09:50:43;;;;;;;;;;;26.30;99.90;;;;;;5116551;28;20378;-64
2022/09/15 09:53:22;;;;;;;;;;;26.60;99.90;;;;;;5115978;28;19908;-65
2022/09/15 09:55:47;;;;;;;;;;;26.80;99.90;;;;;;5115734;28;20240;-64
2022/09/15 09:58:21;;;;;;;;;;;27.10;99.90;;;;;;5116142;28;19918;-64
2022/09/15 10:00:46;;;;;;;;;;;27.30;99.90;;;;;;5116139;28;20041;-64
2022/09/15 10:03:15;;;;;;;;;;;27.50;99.90;;;;;;5115909;28;19999;-65
2022/09/15 10:05:41;;;;;;;;;;;27.90;99.90;;;;;;5115873;28;19922;-66
2022/09/15 10:08:13;;;;;;;;;;;28.10;99.90;;;;;;5115962;28;19918;-66
2022/09/15 10:10:48;;;;;;;;;;;28.00;99.90;;;;;;5116289;28;19908;-64
2022/09/15 10:13:13;;;;;;;;;;;27.90;99.90;;;;;;5115764;28;19960;-65
2022/09/15 10:15:39;;;;;;;;;;;27.80;99.90;;;;;;5115335;28;19924;-64
2022/09/15 10:18:06;;;;;;;;;;;28.00;99.90;;;;;;5097518;28;19956;-65
2022/09/15 10:20:35;;;;;;;;;;;28.30;99.90;;;;;;5115711;28;19968;-65
2022/09/15 10:23:02;;;;;;;;;;;28.60;99.90;;;;;;5115587;28;19912;-65
2022/09/15 10:25:30;;;;;;;;;;;28.90;99.90;;;;;;5115377;28;19961;-63
2022/09/15 10:28:08;;;;;;;;;;;29.20;99.90;;;;;;5115537;28;20375;-64
2022/09/15 10:30:37;;;;;;;;;;;29.30;99.90;;;;;;5097052;28;20301;-66
2022/09/15 10:33:33;;;;;;;;;;;30.10;99.90;;;;;;5112957;28;19965;-64
2022/09/15 10:36:09;;;;;;;;;;;31.00;99.90;;;;;;5085682;28;20390;-64
2022/09/15 10:38:40;;;;;;;;;;;31.60;99.90;;;;;;5095003;28;19969;-63
2022/09/15 10:41:06;;;;;;;;;;;31.00;99.90;;;;;;5094978;28;19912;-64
2022/09/15 10:43:32;;;;;;;;;;;30.20;99.90;;;;;;5094265;28;19908;-65
2022/09/15 10:46:04;;;;;;;;;;;29.80;99.90;;;;;;5094206;28;19974;-64
2022/09/15 10:48:41;;;;;;;;;;;29.60;99.90;;;;;;5094452;28;20317;-64
2022/09/15 10:51:14;;;;;;;;;;;29.80;99.90;;;;;;5094661;28;19912;-63
2022/09/15 10:53:58;;;;;;;;;;;29.80;99.90;;;;;;5094674;28;19916;-63
2022/09/15 10:56:35;;;;;;;;;;;29.50;99.90;;;;;;5094698;28;19941;-64
2022/09/15 10:59:21;;;;;;;;;;;29.30;99.90;;;;;;5094605;28;20017;-64
2022/09/15 11:02:05;;;;;;;;;;;29.20;99.90;;;;;;5072509;28;20326;-63
2022/09/15 11:04:31;;;;;;;;;;;29.10;99.90;;;;;;5094562;28;19970;-64
2022/09/15 11:07:16;;;;;;;;;;;29.00;99.90;;;;;;5104583;28;19954;-64
2022/09/15 11:10:07;;;;;;;;;;;28.90;99.90;;;;;;5114383;28;20007;-64
2022/09/15 11:12:33;;;;;;;;;;;28.70;99.90;;;;;;5096956;28;20084;-65
2022/09/15 11:14:59;;;;;;;;;;;28.50;99.90;;;;;;5113273;28;20006;-64
2022/09/15 11:17:27;;;;;;;;;;;28.30;99.90;;;;;;5114572;28;19908;-64
2022/09/15 11:20:02;;;;;;;;;;;28.10;99.90;;;;;;5114435;28;19908;-64
2022/09/15 11:22:36;;;;;;;;;;;28.00;99.90;;;;;;5114470;28;20376;-63
2022/09/15 11:25:18;;;;;;;;;;;28.10;99.90;;;;;;5114408;28;19917;-63
2022/09/15 11:27:48;;;;;;;;;;;28.10;99.90;;;;;;5095758;28;20414;-64
2022/09/15 11:30:18;;;;;;;;;;;28.00;99.90;;;;;;5095949;28;19907;-64
2022/09/15 11:32:57;;;;;;;;;;;28.10;99.90;;;;;;5114250;28;19908;-64
2022/09/15 11:35:25;;;;;;;;;;;28.20;99.90;;;;;;5114259;28;19908;-67
2022/09/15 11:37:52;;;;;;;;;;;28.60;99.90;;;;;;5114018;28;19916;-64
2022/09/15 11:40:27;;;;;;;;;;;28.90;99.90;;;;;;5114188;28;20360;-68
2022/09/15 11:42:56;;;;;;;;;;;29.30;99.90;;;;;;5114431;28;19908;-67
2022/09/15 11:45:26;;;;;;;;;;;29.30;99.90;;;;;;5095882;28;20056;-65
2022/09/15 11:47:55;;;;;;;;;;;29.20;99.90;;;;;;5113974;28;19999;-65
2022/09/15 11:50:29;;;;;;;;;;;29.70;99.90;;;;;;5113962;28;19915;-69
2022/09/15 11:53:01;;;;;;;;;;;30.60;99.90;;;;;;5095801;28;19914;-66
2022/09/15 11:55:33;;;;;;;;;;;33.50;99.90;;;;;;5095621;28;20319;-65
2022/09/15 11:58:05;;;;;;;;;;;31.90;99.90;;;;;;5114009;28;19908;-66
2022/09/15 12:00:32;;;;;;;;;;;32.00;99.90;;;;;;5095573;28;20698;-66
2022/09/15 12:03:13;;;;;;;;;;;34.60;98.90;;;;;;5095573;28;19908;-66
2022/09/15 12:05:58;;;;;;;;;;;35.70;97.30;;;;;;5113652;28;20401;-66
2022/09/15 12:08:28;;;;;;;;;;;37.00;94.40;;;;;;5113804;28;19916;-68
2022/09/15 12:10:55;;;;;;;;;;;36.80;93.20;;;;;;5113908;28;19915;-68
2022/09/15 12:13:22;;;;;;;;;;;36.40;92.20;;;;;;5113486;28;19980;-67
2022/09/15 12:15:49;;;;;;;;;;;33.80;94.40;;;;;;5113946;28;20306;-67
2022/09/15 12:18:24;;;;;;;;;;;32.60;94.40;;;;;;5095225;28;19930;-66
2022/09/15 12:20:53;;;;;;;;;;;31.80;95.40;;;;;;5113701;28;20014;-65
2022/09/15 12:23:32;;;;;;;;;;;31.70;95.50;;;;;;5113719;28;19957;-65
2022/09/15 12:26:13;;;;;;;;;;;31.30;95.80;;;;;;5095470;28;19969;-65
2022/09/15 12:28:41;;;;;;;;;;;31.20;96.10;;;;;;5113813;28;19916;-67
2022/09/15 12:31:25;;;;;;;;;;;30.90;97.20;;;;;;5095456;28;19908;-64
2022/09/15 12:34:04;;;;;;;;;;;30.60;96.70;;;;;;5113795;28;19964;-64
2022/09/15 12:36:38;;;;;;;;;;;30.20;96.90;;;;;;5113785;28;19914;-63
2022/09/15 12:39:22;;;;;;;;;;;30.10;99.20;;;;;;5113736;28;19915;-65
2022/09/15 12:42:14;;;;;;;;;;;29.90;96.70;;;;;;5093995;28;20060;-67
2022/09/15 12:44:41;;;;;;;;;;;29.70;97.50;;;;;;5107883;28;20007;-67
2022/09/15 12:47:17;;;;;;;;;;;29.60;98.10;;;;;;5112127;28;19919;-66
2022/09/15 12:49:45;;;;;;;;;;;29.50;99.10;;;;;;5109668;28;19920;-67
2022/09/15 12:52:11;;;;;;;;;;;29.50;98.80;;;;;;5112037;28;20414;-65
2022/09/15 12:54:38;;;;;;;;;;;29.40;98.30;;;;;;5112294;28;19908;-65
2022/09/15 12:57:05;;;;;;;;;;;29.40;99.90;;;;;;5112141;28;19911;-65
2022/09/15 12:59:31;;;;;;;;;;;29.30;99.90;;;;;;5112223;28;19920;-65
2022/09/15 13:01:57;;;;;;;;;;;29.40;98.40;;;;;;5094750;28;19915;-63
2022/09/15 13:04:26;;;;;;;;;;;29.40;99.90;;;;;;5113474;28;19907;-64
2022/09/15 13:07:09;;;;;;;;;;;29.40;99.90;;;;;;5113478;28;19935;-69
2022/09/15 13:09:42;;;;;;;;;;;29.30;99.90;;;;;;5113296;28;19911;-65
2022/09/15 13:12:09;;;;;;;;;;;29.10;99.90;;;;;;5113365;28;19908;-64
2022/09/15 13:14:37;;;;;;;;;;;29.00;99.90;;;;;;5113495;28;19923;-64
2022/09/15 13:17:06;;;;;;;;;;;28.90;99.90;;;;;;5113218;28;19912;-64
2022/09/15 13:19:34;;;;;;;;;;;28.80;99.90;;;;;;5094801;28;19914;-65
2022/09/15 13:22:11;;;;;;;;;;;28.80;99.90;;;;;;5113134;28;20125;-65
2022/09/15 13:24:42;;;;;;;;;;;29.00;99.90;;;;;;5095090;28;20019;-64
2022/09/15 13:27:08;;;;;;;;;;;29.00;99.90;;;;;;5113239;28;19922;-65
2022/09/15 13:30:00;;;;;;;;;;;30.00;99.90;;;;;;5114579;28;19990;-65
2022/09/15 13:32:28;;;;;;;;;;;30.30;99.90;;;;;;5114373;28;19947;-65
2022/09/15 13:35:00;;;;;;;;;;;30.30;99.90;;;;;;5116895;28;19908;-65
2022/09/15 13:37:26;;;;;;;;;;;30.20;99.90;;;;;;5117115;28;19915;-64
2022/09/15 13:39:52;;;;;;;;;;;30.10;99.90;;;;;;5116795;28;19907;-65
2022/09/15 13:42:33;;;;;;;;;;;29.80;99.90;;;;;;5116821;28;20069;-64
2022/09/15 13:45:01;;;;;;;;;;;29.60;99.90;;;;;;5117122;28;19916;-65
2022/09/15 13:47:42;;;;;;;;;;;29.30;99.90;;;;;;5115680;28;19972;-66
2022/09/15 13:50:13;;;;;;;;;;;29.10;99.90;;;;;;5095204;28;20354;-67
2022/09/15 13:52:58;;;;;;;;;;;28.90;99.90;;;;;;5115170;28;20411;-65
2022/09/15 13:55:26;;;;;;;;;;;28.80;99.90;;;;;;5094575;28;19915;-67
2022/09/15 13:58:02;;;;;;;;;;;28.70;99.90;;;;;;5115105;28;19907;-64
2022/09/15 14:00:32;;;;;;;;;;;28.50;99.90;;;;;;5095308;28;19908;-65
2022/09/15 14:03:08;;;;;;;;;;;28.40;99.90;;;;;;5097865;28;19915;-64
2022/09/15 14:05:35;;;;;;;;;;;28.20;99.90;;;;;;5115918;28;19982;-64
2022/09/15 14:08:03;;;;;;;;;;;28.20;99.90;;;;;;5097822;28;19920;-64
2022/09/15 14:10:30;;;;;;;;;;;28.10;99.90;;;;;;5116158;28;19908;-64
2022/09/15 14:13:00;;;;;;;;;;;28.20;99.90;;;;;;5116182;28;19918;-68
2022/09/15 14:15:27;;;;;;;;;;;28.20;99.90;;;;;;5097384;28;20375;-68
2022/09/15 14:17:52;;;;;;;;;;;28.30;99.90;;;;;;5097426;28;20034;-66
2022/09/15 14:20:21;;;;;;;;;;;28.40;99.90;;;;;;5115690;28;20403;-66
2022/09/15 14:22:48;;;;;;;;;;;28.80;99.90;;;;;;5115857;28;19912;-66
2022/09/15 14:25:15;;;;;;;;;;;29.20;99.90;;;;;;5115754;28;19947;-65
2022/09/15 14:27:43;;;;;;;;;;;29.20;99.90;;;;;;5115792;28;19922;-66
2022/09/15 14:30:17;;;;;;;;;;;29.00;99.90;;;;;;5115558;28;19912;-65
2022/09/15 14:32:45;;;;;;;;;;;28.80;99.90;;;;;;5115416;28;19911;-66
2022/09/15 14:35:14;;;;;;;;;;;28.90;99.90;;;;;;5115238;28;19974;-67